sensor_id;sensor_type;location;lat;lon;timestamp;P1;durP1;ratioP1;P2;durP2;ratioP2
19043;SDS011;9654;52.302;8.120;2023-08-01T00:00:12;4.10;;;2.20;;
19043;SDS011;9654;52.302;8.120;2023-08-01T00:02:38;3.03;;;2.73;;
19043;SDS011;9654;52.302;8.120;2023-08-01T00:05:08;3.10;;;2.90;;
19043;SDS011;9654;52.302;8.120;2023-08-01T00:07:35;3.13;;;2.83;;
19043;SDS011;9654;52.302;8.120;2023-08-01T00:10:01;3.93;;;3.50;;
19043;SDS011;9654;52.302;8.120;2023-08-01T00:12:28;4.23;;;3.57;;
19043;SDS011;9654;52.302;8.120;2023-08-01T00:14:56;3.20;;;2.90;;
19043;SDS011;9654;52.302;8.120;2023-08-01T00:17:23;3.47;;;3.17;;
19043;SDS011;9654;52.302;8.120;2023-08-01T00:19:50;4.23;;;3.33;;
19043;SDS011;9654;52.302;8.120;2023-08-01T00:22:17;4.07;;;3.77;;
19043;SDS011;9654;52.302;8.120;2023-08-01T00:24:44;4.23;;;3.60;;
19043;SDS011;9654;52.302;8.120;2023-08-01T00:27:12;3.67;;;3.30;;
19043;SDS011;9654;52.302;8.120;2023-08-01T00:29:39;7.27;;;4.00;;
19043;SDS011;9654;52.302;8.120;2023-08-01T00:32:07;5.53;;;4.23;;
19043;SDS011;9654;52.302;8.120;2023-08-01T00:34:34;7.37;;;4.77;;
19043;SDS011;9654;52.302;8.120;2023-08-01T00:37:01;5.67;;;4.80;;
19043;SDS011;9654;52.302;8.120;2023-08-01T00:39:28;7.23;;;5.07;;
19043;SDS011;9654;52.302;8.120;2023-08-01T00:41:54;5.27;;;4.80;;
19043;SDS011;9654;52.302;8.120;2023-08-01T00:44:21;6.17;;;4.90;;
19043;SDS011;9654;52.302;8.120;2023-08-01T00:46:48;6.30;;;4.63;;
19043;SDS011;9654;52.302;8.120;2023-08-01T00:49:17;5.87;;;4.70;;
19043;SDS011;9654;52.302;8.120;2023-08-01T00:51:44;5.90;;;4.87;;
19043;SDS011;9654;52.302;8.120;2023-08-01T00:54:11;4.47;;;4.17;;
19043;SDS011;9654;52.302;8.120;2023-08-01T00:56:38;4.10;;;3.80;;
19043;SDS011;9654;52.302;8.120;2023-08-01T00:59:04;3.53;;;3.30;;
19043;SDS011;9654;52.302;8.120;2023-08-01T01:01:31;3.63;;;3.33;;
19043;SDS011;9654;52.302;8.120;2023-08-01T01:03:58;4.07;;;3.50;;
19043;SDS011;9654;52.302;8.120;2023-08-01T01:06:28;3.27;;;3.07;;
19043;SDS011;9654;52.302;8.120;2023-08-01T01:08:59;3.43;;;3.10;;
19043;SDS011;9654;52.302;8.120;2023-08-01T01:11:25;3.57;;;3.03;;
19043;SDS011;9654;52.302;8.120;2023-08-01T01:13:52;3.07;;;2.67;;
19043;SDS011;9654;52.302;8.120;2023-08-01T01:16:19;3.30;;;2.77;;
19043;SDS011;9654;52.302;8.120;2023-08-01T01:18:46;2.80;;;2.60;;
19043;SDS011;9654;52.302;8.120;2023-08-01T01:21:32;2.70;;;2.50;;
19043;SDS011;9654;52.302;8.120;2023-08-01T01:24:44;2.53;;;2.33;;
19043;SDS011;9654;52.302;8.120;2023-08-01T01:27:12;2.93;;;2.30;;
19043;SDS011;9654;52.302;8.120;2023-08-01T01:29:41;2.50;;;2.30;;
19043;SDS011;9654;52.302;8.120;2023-08-01T01:32:09;5.63;;;2.80;;
19043;SDS011;9654;52.302;8.120;2023-08-01T01:34:37;4.70;;;2.87;;
19043;SDS011;9654;52.302;8.120;2023-08-01T01:37:05;3.57;;;2.70;;
19043;SDS011;9654;52.302;8.120;2023-08-01T01:39:32;4.43;;;2.80;;
19043;SDS011;9654;52.302;8.120;2023-08-01T01:41:59;4.77;;;2.80;;
19043;SDS011;9654;52.302;8.120;2023-08-01T01:44:26;5.17;;;3.00;;
19043;SDS011;9654;52.302;8.120;2023-08-01T01:46:53;2.77;;;2.57;;
19043;SDS011;9654;52.302;8.120;2023-08-01T01:49:20;3.17;;;2.97;;
19043;SDS011;9654;52.302;8.120;2023-08-01T01:51:46;13.30;;;4.00;;
19043;SDS011;9654;52.302;8.120;2023-08-01T01:54:14;4.77;;;2.83;;
19043;SDS011;9654;52.302;8.120;2023-08-01T01:56:41;3.43;;;2.63;;
19043;SDS011;9654;52.302;8.120;2023-08-01T01:59:08;5.73;;;3.13;;
19043;SDS011;9654;52.302;8.120;2023-08-01T02:01:35;3.53;;;3.20;;
19043;SDS011;9654;52.302;8.120;2023-08-01T02:04:01;5.93;;;3.10;;
19043;SDS011;9654;52.302;8.120;2023-08-01T02:06:28;3.77;;;3.07;;
19043;SDS011;9654;52.302;8.120;2023-08-01T02:08:55;3.17;;;2.87;;
19043;SDS011;9654;52.302;8.120;2023-08-01T02:11:23;3.50;;;2.53;;
19043;SDS011;9654;52.302;8.120;2023-08-01T02:13:50;5.47;;;3.00;;
19043;SDS011;9654;52.302;8.120;2023-08-01T02:16:16;3.87;;;2.70;;
19043;SDS011;9654;52.302;8.120;2023-08-01T02:18:43;3.00;;;2.70;;
19043;SDS011;9654;52.302;8.120;2023-08-01T02:21:10;3.57;;;3.23;;
19043;SDS011;9654;52.302;8.120;2023-08-01T02:23:37;2.93;;;2.60;;
19043;SDS011;9654;52.302;8.120;2023-08-01T02:26:03;5.87;;;3.23;;
19043;SDS011;9654;52.302;8.120;2023-08-01T02:28:34;4.43;;;3.07;;
19043;SDS011;9654;52.302;8.120;2023-08-01T02:31:01;6.30;;;3.10;;
19043;SDS011;9654;52.302;8.120;2023-08-01T02:33:28;7.67;;;3.33;;
19043;SDS011;9654;52.302;8.120;2023-08-01T02:35:54;3.73;;;3.10;;
19043;SDS011;9654;52.302;8.120;2023-08-01T02:38:21;3.17;;;2.83;;
19043;SDS011;9654;52.302;8.120;2023-08-01T02:40:48;5.90;;;2.97;;
19043;SDS011;9654;52.302;8.120;2023-08-01T02:43:15;6.33;;;3.90;;
19043;SDS011;9654;52.302;8.120;2023-08-01T02:45:43;6.80;;;4.10;;
19043;SDS011;9654;52.302;8.120;2023-08-01T02:48:10;5.57;;;3.93;;
19043;SDS011;9654;52.302;8.120;2023-08-01T02:50:37;8.07;;;4.43;;
19043;SDS011;9654;52.302;8.120;2023-08-01T02:53:04;7.07;;;4.77;;
19043;SDS011;9654;52.302;8.120;2023-08-01T02:55:31;10.80;;;5.10;;
19043;SDS011;9654;52.302;8.120;2023-08-01T02:57:58;8.57;;;5.73;;
19043;SDS011;9654;52.302;8.120;2023-08-01T03:00:24;10.73;;;6.50;;
19043;SDS011;9654;52.302;8.120;2023-08-01T03:02:53;8.90;;;7.20;;
19043;SDS011;9654;52.302;8.120;2023-08-01T03:05:19;11.57;;;7.27;;
19043;SDS011;9654;52.302;8.120;2023-08-01T03:07:46;12.70;;;7.80;;
19043;SDS011;9654;52.302;8.120;2023-08-01T03:10:13;13.03;;;7.57;;
19043;SDS011;9654;52.302;8.120;2023-08-01T03:12:40;16.87;;;8.93;;
19043;SDS011;9654;52.302;8.120;2023-08-01T03:15:07;10.87;;;7.17;;
19043;SDS011;9654;52.302;8.120;2023-08-01T03:17:34;16.27;;;8.43;;
19043;SDS011;9654;52.302;8.120;2023-08-01T03:20:02;16.43;;;8.73;;
19043;SDS011;9654;52.302;8.120;2023-08-01T03:22:30;18.03;;;9.47;;
19043;SDS011;9654;52.302;8.120;2023-08-01T03:24:57;15.43;;;10.30;;
19043;SDS011;9654;52.302;8.120;2023-08-01T03:27:23;16.80;;;9.73;;
19043;SDS011;9654;52.302;8.120;2023-08-01T03:29:50;16.87;;;10.33;;
19043;SDS011;9654;52.302;8.120;2023-08-01T03:32:17;15.63;;;11.17;;
19043;SDS011;9654;52.302;8.120;2023-08-01T03:34:44;23.30;;;11.83;;
19043;SDS011;9654;52.302;8.120;2023-08-01T03:37:12;20.73;;;11.67;;
19043;SDS011;9654;52.302;8.120;2023-08-01T03:39:38;21.60;;;11.57;;
19043;SDS011;9654;52.302;8.120;2023-08-01T03:42:05;16.03;;;10.50;;
19043;SDS011;9654;52.302;8.120;2023-08-01T03:44:33;16.10;;;10.67;;
19043;SDS011;9654;52.302;8.120;2023-08-01T03:46:59;15.03;;;9.93;;
19043;SDS011;9654;52.302;8.120;2023-08-01T03:49:26;16.93;;;10.13;;
19043;SDS011;9654;52.302;8.120;2023-08-01T03:51:53;13.30;;;9.17;;
19043;SDS011;9654;52.302;8.120;2023-08-01T03:54:21;12.37;;;8.63;;
19043;SDS011;9654;52.302;8.120;2023-08-01T03:56:48;16.93;;;9.37;;
19043;SDS011;9654;52.302;8.120;2023-08-01T03:59:15;15.67;;;10.27;;
19043;SDS011;9654;52.302;8.120;2023-08-01T04:01:42;14.00;;;9.33;;
19043;SDS011;9654;52.302;8.120;2023-08-01T04:04:09;14.97;;;9.57;;
19043;SDS011;9654;52.302;8.120;2023-08-01T04:06:36;15.00;;;9.10;;
19043;SDS011;9654;52.302;8.120;2023-08-01T04:09:03;12.53;;;9.37;;
19043;SDS011;9654;52.302;8.120;2023-08-01T04:11:30;13.47;;;9.10;;
19043;SDS011;9654;52.302;8.120;2023-08-01T04:13:57;13.03;;;9.50;;
19043;SDS011;9654;52.302;8.120;2023-08-01T04:16:24;15.70;;;9.40;;
19043;SDS011;9654;52.302;8.120;2023-08-01T04:18:50;13.10;;;9.77;;
19043;SDS011;9654;52.302;8.120;2023-08-01T04:21:17;13.13;;;9.40;;
19043;SDS011;9654;52.302;8.120;2023-08-01T04:23:44;19.87;;;10.87;;
19043;SDS011;9654;52.302;8.120;2023-08-01T04:26:11;16.67;;;10.83;;
19043;SDS011;9654;52.302;8.120;2023-08-01T04:28:39;19.80;;;10.27;;
19043;SDS011;9654;52.302;8.120;2023-08-01T04:31:06;15.57;;;10.80;;
19043;SDS011;9654;52.302;8.120;2023-08-01T04:33:33;16.30;;;11.23;;
19043;SDS011;9654;52.302;8.120;2023-08-01T04:35:59;16.83;;;10.73;;
19043;SDS011;9654;52.302;8.120;2023-08-01T04:38:26;21.93;;;11.90;;
19043;SDS011;9654;52.302;8.120;2023-08-01T04:40:53;16.27;;;10.73;;
19043;SDS011;9654;52.302;8.120;2023-08-01T04:43:20;21.20;;;11.83;;
19043;SDS011;9654;52.302;8.120;2023-08-01T04:45:48;17.37;;;11.10;;
19043;SDS011;9654;52.302;8.120;2023-08-01T04:48:15;18.13;;;11.77;;
19043;SDS011;9654;52.302;8.120;2023-08-01T04:50:41;19.10;;;11.77;;
19043;SDS011;9654;52.302;8.120;2023-08-01T04:53:08;20.63;;;11.50;;
19043;SDS011;9654;52.302;8.120;2023-08-01T04:55:36;20.23;;;11.97;;
19043;SDS011;9654;52.302;8.120;2023-08-01T04:58:03;17.57;;;11.33;;
19043;SDS011;9654;52.302;8.120;2023-08-01T05:00:29;25.70;;;12.70;;
19043;SDS011;9654;52.302;8.120;2023-08-01T05:02:57;18.40;;;11.97;;
19043;SDS011;9654;52.302;8.120;2023-08-01T05:05:24;20.60;;;11.27;;
19043;SDS011;9654;52.302;8.120;2023-08-01T05:07:52;17.73;;;11.27;;
19043;SDS011;9654;52.302;8.120;2023-08-01T05:10:18;20.23;;;10.87;;
19043;SDS011;9654;52.302;8.120;2023-08-01T05:12:45;20.33;;;11.43;;
19043;SDS011;9654;52.302;8.120;2023-08-01T05:15:12;22.07;;;11.03;;
19043;SDS011;9654;52.302;8.120;2023-08-01T05:17:39;17.10;;;10.53;;
19043;SDS011;9654;52.302;8.120;2023-08-01T05:20:07;24.07;;;10.53;;
19043;SDS011;9654;52.302;8.120;2023-08-01T05:22:34;21.37;;;10.50;;
19043;SDS011;9654;52.302;8.120;2023-08-01T05:25:01;25.80;;;10.83;;
19043;SDS011;9654;52.302;8.120;2023-08-01T05:27:29;20.30;;;9.57;;
19043;SDS011;9654;52.302;8.120;2023-08-01T05:29:56;17.43;;;9.97;;
19043;SDS011;9654;52.302;8.120;2023-08-01T05:32:23;27.97;;;11.23;;
19043;SDS011;9654;52.302;8.120;2023-08-01T05:34:50;24.20;;;9.90;;
19043;SDS011;9654;52.302;8.120;2023-08-01T05:37:18;16.97;;;9.20;;
19043;SDS011;9654;52.302;8.120;2023-08-01T05:39:44;20.73;;;9.70;;
19043;SDS011;9654;52.302;8.120;2023-08-01T05:42:11;20.93;;;9.57;;
19043;SDS011;9654;52.302;8.120;2023-08-01T05:44:38;19.13;;;8.60;;
19043;SDS011;9654;52.302;8.120;2023-08-01T05:47:05;18.90;;;8.60;;
19043;SDS011;9654;52.302;8.120;2023-08-01T05:49:32;15.10;;;8.20;;
19043;SDS011;9654;52.302;8.120;2023-08-01T05:51:58;17.60;;;8.57;;
19043;SDS011;9654;52.302;8.120;2023-08-01T05:54:26;20.93;;;8.13;;
19043;SDS011;9654;52.302;8.120;2023-08-01T05:56:53;18.67;;;8.07;;
19043;SDS011;9654;52.302;8.120;2023-08-01T05:59:20;21.53;;;8.10;;
19043;SDS011;9654;52.302;8.120;2023-08-01T06:01:47;18.67;;;7.57;;
19043;SDS011;9654;52.302;8.120;2023-08-01T06:04:14;20.40;;;7.50;;
19043;SDS011;9654;52.302;8.120;2023-08-01T06:06:40;19.77;;;7.53;;
19043;SDS011;9654;52.302;8.120;2023-08-01T06:09:07;15.87;;;6.90;;
19043;SDS011;9654;52.302;8.120;2023-08-01T06:11:35;16.57;;;7.50;;
19043;SDS011;9654;52.302;8.120;2023-08-01T06:14:02;19.40;;;6.87;;
19043;SDS011;9654;52.302;8.120;2023-08-01T06:16:29;16.13;;;7.17;;
19043;SDS011;9654;52.302;8.120;2023-08-01T06:18:56;16.03;;;7.87;;
19043;SDS011;9654;52.302;8.120;2023-08-01T06:21:23;17.83;;;8.20;;
19043;SDS011;9654;52.302;8.120;2023-08-01T06:23:49;13.07;;;6.87;;
19043;SDS011;9654;52.302;8.120;2023-08-01T06:26:16;20.70;;;8.13;;
19043;SDS011;9654;52.302;8.120;2023-08-01T06:28:44;20.70;;;8.07;;
19043;SDS011;9654;52.302;8.120;2023-08-01T06:31:11;18.50;;;8.07;;
19043;SDS011;9654;52.302;8.120;2023-08-01T06:33:38;16.07;;;8.00;;
19043;SDS011;9654;52.302;8.120;2023-08-01T06:36:05;20.13;;;8.77;;
19043;SDS011;9654;52.302;8.120;2023-08-01T06:38:32;20.30;;;8.30;;
19043;SDS011;9654;52.302;8.120;2023-08-01T06:40:58;15.40;;;8.00;;
19043;SDS011;9654;52.302;8.120;2023-08-01T06:43:25;15.80;;;7.87;;
19043;SDS011;9654;52.302;8.120;2023-08-01T06:45:53;18.57;;;9.37;;
19043;SDS011;9654;52.302;8.120;2023-08-01T06:48:20;18.90;;;7.93;;
19043;SDS011;9654;52.302;8.120;2023-08-01T06:50:47;19.87;;;8.10;;
19043;SDS011;9654;52.302;8.120;2023-08-01T06:53:13;15.77;;;8.67;;
19043;SDS011;9654;52.302;8.120;2023-08-01T06:55:40;16.63;;;8.33;;
19043;SDS011;9654;52.302;8.120;2023-08-01T06:58:07;18.07;;;7.87;;
19043;SDS011;9654;52.302;8.120;2023-08-01T07:00:34;12.90;;;7.83;;
19043;SDS011;9654;52.302;8.120;2023-08-01T07:03:02;15.57;;;7.97;;
19043;SDS011;9654;52.302;8.120;2023-08-01T07:05:28;14.67;;;9.17;;
19043;SDS011;9654;52.302;8.120;2023-08-01T07:07:55;18.17;;;9.77;;
19043;SDS011;9654;52.302;8.120;2023-08-01T07:10:23;20.57;;;8.00;;
19043;SDS011;9654;52.302;8.120;2023-08-01T07:12:50;14.07;;;8.20;;
19043;SDS011;9654;52.302;8.120;2023-08-01T07:15:16;15.57;;;8.00;;
19043;SDS011;9654;52.302;8.120;2023-08-01T07:17:43;16.70;;;7.80;;
19043;SDS011;9654;52.302;8.120;2023-08-01T07:20:11;14.47;;;7.93;;
19043;SDS011;9654;52.302;8.120;2023-08-01T07:22:38;11.73;;;7.93;;
19043;SDS011;9654;52.302;8.120;2023-08-01T07:25:05;13.07;;;7.50;;
19043;SDS011;9654;52.302;8.120;2023-08-01T07:27:32;17.20;;;9.03;;
19043;SDS011;9654;52.302;8.120;2023-08-01T07:29:59;12.83;;;6.07;;
19043;SDS011;9654;52.302;8.120;2023-08-01T07:32:26;11.60;;;5.87;;
19043;SDS011;9654;52.302;8.120;2023-08-01T07:34:53;11.67;;;6.00;;
19043;SDS011;9654;52.302;8.120;2023-08-01T07:37:21;14.23;;;5.97;;
19043;SDS011;9654;52.302;8.120;2023-08-01T07:39:49;12.60;;;6.20;;
19043;SDS011;9654;52.302;8.120;2023-08-01T07:42:16;12.13;;;5.63;;
19043;SDS011;9654;52.302;8.120;2023-08-01T07:44:42;15.20;;;6.30;;
19043;SDS011;9654;52.302;8.120;2023-08-01T07:47:09;14.70;;;6.30;;
19043;SDS011;9654;52.302;8.120;2023-08-01T07:49:36;11.37;;;5.40;;
19043;SDS011;9654;52.302;8.120;2023-08-01T07:52:03;12.90;;;6.00;;
19043;SDS011;9654;52.302;8.120;2023-08-01T07:54:32;12.67;;;5.47;;
19043;SDS011;9654;52.302;8.120;2023-08-01T07:56:59;15.67;;;5.60;;
19043;SDS011;9654;52.302;8.120;2023-08-01T07:59:25;11.97;;;4.97;;
19043;SDS011;9654;52.302;8.120;2023-08-01T08:01:52;11.90;;;4.73;;
19043;SDS011;9654;52.302;8.120;2023-08-01T08:04:19;15.73;;;5.20;;
19043;SDS011;9654;52.302;8.120;2023-08-01T08:06:45;17.67;;;5.33;;
19043;SDS011;9654;52.302;8.120;2023-08-01T08:09:12;16.47;;;6.63;;
19043;SDS011;9654;52.302;8.120;2023-08-01T08:11:40;11.70;;;5.30;;
19043;SDS011;9654;52.302;8.120;2023-08-01T08:14:07;13.90;;;5.20;;
19043;SDS011;9654;52.302;8.120;2023-08-01T08:16:34;13.83;;;5.27;;
19043;SDS011;9654;52.302;8.120;2023-08-01T08:19:01;8.63;;;4.90;;
19043;SDS011;9654;52.302;8.120;2023-08-01T08:21:27;10.23;;;5.17;;
19043;SDS011;9654;52.302;8.120;2023-08-01T08:23:54;13.00;;;5.03;;
19043;SDS011;9654;52.302;8.120;2023-08-01T08:26:21;10.03;;;4.87;;
19043;SDS011;9654;52.302;8.120;2023-08-01T08:28:50;14.23;;;5.20;;
19043;SDS011;9654;52.302;8.120;2023-08-01T08:31:17;11.50;;;4.87;;
19043;SDS011;9654;52.302;8.120;2023-08-01T08:33:44;12.87;;;5.97;;
19043;SDS011;9654;52.302;8.120;2023-08-01T08:36:11;10.40;;;5.07;;
19043;SDS011;9654;52.302;8.120;2023-08-01T08:38:37;11.87;;;4.90;;
19043;SDS011;9654;52.302;8.120;2023-08-01T08:41:08;10.97;;;4.77;;
19043;SDS011;9654;52.302;8.120;2023-08-01T08:43:36;13.03;;;4.17;;
19043;SDS011;9654;52.302;8.120;2023-08-01T08:46:04;8.20;;;4.57;;
19043;SDS011;9654;52.302;8.120;2023-08-01T08:48:32;11.70;;;4.53;;
19043;SDS011;9654;52.302;8.120;2023-08-01T08:50:59;13.07;;;4.70;;
19043;SDS011;9654;52.302;8.120;2023-08-01T08:53:28;15.37;;;5.20;;
19043;SDS011;9654;52.302;8.120;2023-08-01T08:55:57;9.30;;;4.67;;
19043;SDS011;9654;52.302;8.120;2023-08-01T08:58:25;10.23;;;5.10;;
19043;SDS011;9654;52.302;8.120;2023-08-01T09:00:52;6.80;;;4.77;;
19043;SDS011;9654;52.302;8.120;2023-08-01T09:03:21;14.67;;;5.00;;
19043;SDS011;9654;52.302;8.120;2023-08-01T09:05:48;14.47;;;5.37;;
19043;SDS011;9654;52.302;8.120;2023-08-01T09:08:17;12.03;;;5.37;;
19043;SDS011;9654;52.302;8.120;2023-08-01T09:10:45;14.37;;;5.67;;
19043;SDS011;9654;52.302;8.120;2023-08-01T09:13:13;9.80;;;5.43;;
19043;SDS011;9654;52.302;8.120;2023-08-01T09:15:40;13.20;;;5.63;;
19043;SDS011;9654;52.302;8.120;2023-08-01T09:18:08;11.77;;;5.23;;
19043;SDS011;9654;52.302;8.120;2023-08-01T09:20:44;12.83;;;5.27;;
19043;SDS011;9654;52.302;8.120;2023-08-01T09:23:12;10.30;;;5.43;;
19043;SDS011;9654;52.302;8.120;2023-08-01T09:25:39;12.07;;;6.03;;
19043;SDS011;9654;52.302;8.120;2023-08-01T09:28:18;13.50;;;4.33;;
19043;SDS011;9654;52.302;8.120;2023-08-01T09:30:46;8.23;;;3.80;;
19043;SDS011;9654;52.302;8.120;2023-08-01T09:33:14;8.30;;;3.70;;
19043;SDS011;9654;52.302;8.120;2023-08-01T09:35:41;8.87;;;3.77;;
19043;SDS011;9654;52.302;8.120;2023-08-01T09:38:10;6.60;;;3.60;;
19043;SDS011;9654;52.302;8.120;2023-08-01T09:40:38;7.93;;;3.70;;
19043;SDS011;9654;52.302;8.120;2023-08-01T09:43:06;10.50;;;4.00;;
19043;SDS011;9654;52.302;8.120;2023-08-01T09:45:33;15.83;;;4.43;;
19043;SDS011;9654;52.302;8.120;2023-08-01T09:48:00;8.37;;;4.30;;
19043;SDS011;9654;52.302;8.120;2023-08-01T09:50:27;13.10;;;5.00;;
19043;SDS011;9654;52.302;8.120;2023-08-01T09:52:54;8.27;;;4.67;;
19043;SDS011;9654;52.302;8.120;2023-08-01T09:55:25;9.97;;;4.90;;
19043;SDS011;9654;52.302;8.120;2023-08-01T09:57:53;11.80;;;5.67;;
19043;SDS011;9654;52.302;8.120;2023-08-01T10:00:22;9.33;;;5.30;;
19043;SDS011;9654;52.302;8.120;2023-08-01T10:02:49;13.87;;;5.23;;
19043;SDS011;9654;52.302;8.120;2023-08-01T10:05:18;12.33;;;4.70;;
19043;SDS011;9654;52.302;8.120;2023-08-01T10:07:46;13.07;;;5.70;;
19043;SDS011;9654;52.302;8.120;2023-08-01T10:10:15;9.67;;;6.00;;
19043;SDS011;9654;52.302;8.120;2023-08-01T10:12:44;11.47;;;5.60;;
19043;SDS011;9654;52.302;8.120;2023-08-01T10:15:13;10.10;;;4.80;;
19043;SDS011;9654;52.302;8.120;2023-08-01T10:17:40;12.10;;;4.60;;
19043;SDS011;9654;52.302;8.120;2023-08-01T10:20:07;8.87;;;4.67;;
19043;SDS011;9654;52.302;8.120;2023-08-01T10:22:35;11.00;;;4.57;;
19043;SDS011;9654;52.302;8.120;2023-08-01T10:25:02;9.50;;;4.20;;
19043;SDS011;9654;52.302;8.120;2023-08-01T10:27:31;11.03;;;3.73;;
19043;SDS011;9654;52.302;8.120;2023-08-01T10:30:02;9.70;;;3.30;;
19043;SDS011;9654;52.302;8.120;2023-08-01T10:32:31;6.87;;;3.27;;
19043;SDS011;9654;52.302;8.120;2023-08-01T10:34:58;8.57;;;2.90;;
19043;SDS011;9654;52.302;8.120;2023-08-01T10:37:25;5.13;;;2.40;;
19043;SDS011;9654;52.302;8.120;2023-08-01T10:39:58;7.87;;;2.97;;
19043;SDS011;9654;52.302;8.120;2023-08-01T10:42:36;8.13;;;2.60;;
19043;SDS011;9654;52.302;8.120;2023-08-01T10:45:05;4.83;;;2.77;;
19043;SDS011;9654;52.302;8.120;2023-08-01T10:47:33;9.83;;;3.60;;
19043;SDS011;9654;52.302;8.120;2023-08-01T10:50:00;9.20;;;2.63;;
19043;SDS011;9654;52.302;8.120;2023-08-01T10:52:28;5.07;;;2.70;;
19043;SDS011;9654;52.302;8.120;2023-08-01T10:54:55;5.03;;;2.33;;
19043;SDS011;9654;52.302;8.120;2023-08-01T10:57:24;5.60;;;2.50;;
19043;SDS011;9654;52.302;8.120;2023-08-01T10:59:51;7.47;;;2.30;;
19043;SDS011;9654;52.302;8.120;2023-08-01T11:02:22;7.77;;;2.93;;
19043;SDS011;9654;52.302;8.120;2023-08-01T11:04:57;6.73;;;2.70;;
19043;SDS011;9654;52.302;8.120;2023-08-01T11:07:24;13.13;;;2.77;;
19043;SDS011;9654;52.302;8.120;2023-08-01T11:10:02;4.87;;;2.50;;
19043;SDS011;9654;52.302;8.120;2023-08-01T11:12:33;6.60;;;3.17;;
19043;SDS011;9654;52.302;8.120;2023-08-01T11:15:02;6.70;;;2.83;;
19043;SDS011;9654;52.302;8.120;2023-08-01T11:17:32;7.43;;;2.50;;
19043;SDS011;9654;52.302;8.120;2023-08-01T11:20:02;5.50;;;2.27;;
19043;SDS011;9654;52.302;8.120;2023-08-01T11:22:30;10.13;;;3.87;;
19043;SDS011;9654;52.302;8.120;2023-08-01T11:24:57;9.63;;;3.50;;
19043;SDS011;9654;52.302;8.120;2023-08-01T11:27:24;6.83;;;3.30;;
19043;SDS011;9654;52.302;8.120;2023-08-01T11:29:52;8.80;;;3.30;;
19043;SDS011;9654;52.302;8.120;2023-08-01T11:32:19;10.23;;;3.27;;
19043;SDS011;9654;52.302;8.120;2023-08-01T11:34:47;7.73;;;3.00;;
19043;SDS011;9654;52.302;8.120;2023-08-01T11:37:15;7.30;;;2.47;;
19043;SDS011;9654;52.302;8.120;2023-08-01T11:39:45;4.93;;;2.67;;
19043;SDS011;9654;52.302;8.120;2023-08-01T11:42:15;9.10;;;2.90;;
19043;SDS011;9654;52.302;8.120;2023-08-01T11:44:43;9.77;;;2.73;;
19043;SDS011;9654;52.302;8.120;2023-08-01T11:47:10;4.03;;;2.80;;
19043;SDS011;9654;52.302;8.120;2023-08-01T11:49:39;7.10;;;2.43;;
19043;SDS011;9654;52.302;8.120;2023-08-01T11:52:11;3.93;;;2.20;;
19043;SDS011;9654;52.302;8.120;2023-08-01T11:54:48;4.63;;;2.20;;
19043;SDS011;9654;52.302;8.120;2023-08-01T11:57:15;4.20;;;2.20;;
19043;SDS011;9654;52.302;8.120;2023-08-01T11:59:46;6.70;;;2.83;;
19043;SDS011;9654;52.302;8.120;2023-08-01T12:02:20;5.87;;;2.33;;
19043;SDS011;9654;52.302;8.120;2023-08-01T12:04:48;5.40;;;2.03;;
19043;SDS011;9654;52.302;8.120;2023-08-01T12:07:16;6.83;;;2.27;;
19043;SDS011;9654;52.302;8.120;2023-08-01T12:09:43;4.97;;;2.63;;
19043;SDS011;9654;52.302;8.120;2023-08-01T12:12:10;5.87;;;2.53;;
19043;SDS011;9654;52.302;8.120;2023-08-01T12:14:39;6.10;;;2.40;;
19043;SDS011;9654;52.302;8.120;2023-08-01T12:17:06;3.30;;;2.27;;
19043;SDS011;9654;52.302;8.120;2023-08-01T12:19:33;5.50;;;2.50;;
19043;SDS011;9654;52.302;8.120;2023-08-01T12:22:00;4.80;;;2.80;;
19043;SDS011;9654;52.302;8.120;2023-08-01T12:24:28;5.67;;;2.40;;
19043;SDS011;9654;52.302;8.120;2023-08-01T12:26:55;4.50;;;2.40;;
19043;SDS011;9654;52.302;8.120;2023-08-01T12:29:21;11.37;;;3.07;;
19043;SDS011;9654;52.302;8.120;2023-08-01T12:31:48;5.73;;;3.00;;
19043;SDS011;9654;52.302;8.120;2023-08-01T12:34:15;9.97;;;3.20;;
19043;SDS011;9654;52.302;8.120;2023-08-01T12:36:42;7.53;;;3.40;;
19043;SDS011;9654;52.302;8.120;2023-08-01T12:39:09;8.83;;;3.33;;
19043;SDS011;9654;52.302;8.120;2023-08-01T12:41:37;7.00;;;2.80;;
19043;SDS011;9654;52.302;8.120;2023-08-01T12:44:04;6.07;;;2.63;;
19043;SDS011;9654;52.302;8.120;2023-08-01T12:46:31;5.40;;;3.30;;
19043;SDS011;9654;52.302;8.120;2023-08-01T12:48:58;5.20;;;2.33;;
19043;SDS011;9654;52.302;8.120;2023-08-01T12:51:24;6.67;;;2.90;;
19043;SDS011;9654;52.302;8.120;2023-08-01T12:53:51;5.97;;;2.37;;
19043;SDS011;9654;52.302;8.120;2023-08-01T12:56:18;5.90;;;2.40;;
19043;SDS011;9654;52.302;8.120;2023-08-01T12:58:46;4.03;;;2.20;;
19043;SDS011;9654;52.302;8.120;2023-08-01T13:01:13;7.97;;;2.43;;
19043;SDS011;9654;52.302;8.120;2023-08-01T13:03:42;4.77;;;2.47;;
19043;SDS011;9654;52.302;8.120;2023-08-01T13:06:10;3.83;;;1.90;;
19043;SDS011;9654;52.302;8.120;2023-08-01T13:08:37;3.90;;;2.00;;
19043;SDS011;9654;52.302;8.120;2023-08-01T13:11:09;5.97;;;2.53;;
19043;SDS011;9654;52.302;8.120;2023-08-01T13:13:37;8.03;;;1.90;;
19043;SDS011;9654;52.302;8.120;2023-08-01T13:16:05;4.63;;;2.13;;
19043;SDS011;9654;52.302;8.120;2023-08-01T13:18:32;6.87;;;2.40;;
19043;SDS011;9654;52.302;8.120;2023-08-01T13:20:58;2.80;;;2.07;;
19043;SDS011;9654;52.302;8.120;2023-08-01T13:23:26;5.63;;;2.10;;
19043;SDS011;9654;52.302;8.120;2023-08-01T13:25:53;7.67;;;2.43;;
19043;SDS011;9654;52.302;8.120;2023-08-01T13:28:20;6.37;;;3.13;;
19043;SDS011;9654;52.302;8.120;2023-08-01T13:30:47;4.80;;;2.57;;
19043;SDS011;9654;52.302;8.120;2023-08-01T13:33:15;4.80;;;2.70;;
19043;SDS011;9654;52.302;8.120;2023-08-01T13:35:42;5.03;;;2.43;;
19043;SDS011;9654;52.302;8.120;2023-08-01T13:38:08;5.70;;;2.20;;
19043;SDS011;9654;52.302;8.120;2023-08-01T13:40:35;3.93;;;1.97;;
19043;SDS011;9654;52.302;8.120;2023-08-01T13:43:02;4.07;;;2.20;;
19043;SDS011;9654;52.302;8.120;2023-08-01T13:45:29;5.37;;;2.27;;
19043;SDS011;9654;52.302;8.120;2023-08-01T13:47:57;2.33;;;1.67;;
19043;SDS011;9654;52.302;8.120;2023-08-01T13:50:28;3.80;;;1.60;;
19043;SDS011;9654;52.302;8.120;2023-08-01T13:52:55;2.93;;;1.53;;
19043;SDS011;9654;52.302;8.120;2023-08-01T13:55:22;2.47;;;1.70;;
19043;SDS011;9654;52.302;8.120;2023-08-01T13:57:49;3.43;;;1.77;;
19043;SDS011;9654;52.302;8.120;2023-08-01T14:00:16;5.10;;;1.63;;
19043;SDS011;9654;52.302;8.120;2023-08-01T14:02:43;6.13;;;1.53;;
19043;SDS011;9654;52.302;8.120;2023-08-01T14:05:09;4.90;;;1.83;;
19043;SDS011;9654;52.302;8.120;2023-08-01T14:07:38;2.07;;;1.53;;
19043;SDS011;9654;52.302;8.120;2023-08-01T14:10:05;3.50;;;1.50;;
19043;SDS011;9654;52.302;8.120;2023-08-01T14:12:32;5.50;;;1.77;;
19043;SDS011;9654;52.302;8.120;2023-08-01T14:14:59;5.57;;;1.87;;
19043;SDS011;9654;52.302;8.120;2023-08-01T14:17:26;4.97;;;1.80;;
19043;SDS011;9654;52.302;8.120;2023-08-01T14:19:52;4.13;;;1.40;;
19043;SDS011;9654;52.302;8.120;2023-08-01T14:22:21;4.67;;;1.80;;
19043;SDS011;9654;52.302;8.120;2023-08-01T14:24:49;3.73;;;1.93;;
19043;SDS011;9654;52.302;8.120;2023-08-01T14:27:16;3.50;;;1.90;;
19043;SDS011;9654;52.302;8.120;2023-08-01T14:29:43;6.13;;;1.60;;
19043;SDS011;9654;52.302;8.120;2023-08-01T14:32:09;6.43;;;1.53;;
19043;SDS011;9654;52.302;8.120;2023-08-01T14:34:36;6.97;;;1.77;;
19043;SDS011;9654;52.302;8.120;2023-08-01T14:37:03;2.90;;;1.33;;
19043;SDS011;9654;52.302;8.120;2023-08-01T14:39:30;1.97;;;1.03;;
19043;SDS011;9654;52.302;8.120;2023-08-01T14:41:58;3.33;;;1.40;;
19043;SDS011;9654;52.302;8.120;2023-08-01T14:44:25;7.13;;;1.23;;
19043;SDS011;9654;52.302;8.120;2023-08-01T14:46:52;2.97;;;1.23;;
19043;SDS011;9654;52.302;8.120;2023-08-01T14:49:19;3.80;;;1.37;;
19043;SDS011;9654;52.302;8.120;2023-08-01T14:51:46;2.30;;;1.40;;
19043;SDS011;9654;52.302;8.120;2023-08-01T14:54:14;2.30;;;1.60;;